Time;durP1;ratioP1;P1;durP2;ratioP2;P2;SDS_P1;SDS_P2;PMS_P1;PMS_P2;Temp;Humidity;BMP_temperature;BMP_pressure;BME280_temperature;BME280_humidity;BME280_pressure;Samples;Min_cycle;Max_cycle;Signal;HPM_P1;HPM_P2
2022/11/30 00:01:52;;;;;;;5.40;4.70;;;4.20;99.90;;;;;;5090214;28;20553;-51
2022/11/30 00:04:19;;;;;;;5.93;5.33;;;4.20;99.90;;;;;;5091317;28;20446;-48
2022/11/30 00:06:47;;;;;;;8.00;6.20;;;4.10;99.90;;;;;;5091369;28;20439;-48
2022/11/30 00:09:14;;;;;;;7.70;6.17;;;4.10;99.90;;;;;;5091227;28;20480;-48
2022/11/30 00:11:41;;;;;;;7.53;6.53;;;4.10;99.90;;;;;;5091048;28;20473;-50
2022/11/30 00:14:08;;;;;;;8.80;7.03;;;4.10;99.90;;;;;;5091429;28;20973;-49
2022/11/30 00:16:35;;;;;;;8.83;7.27;;;4.10;99.90;;;;;;5090914;28;20442;-48
2022/11/30 00:19:02;;;;;;;7.70;7.00;;;4.10;99.90;;;;;;5091338;28;20519;-48
2022/11/30 00:21:28;;;;;;;6.00;5.40;;;4.00;99.90;;;;;;5090652;28;20469;-50
2022/11/30 00:23:57;;;;;;;7.03;6.30;;;4.00;99.90;;;;;;5090833;28;20538;-50
2022/11/30 00:26:23;;;;;;;5.70;5.20;;;4.00;99.90;;;;;;5091490;28;20437;-49
2022/11/30 00:28:50;;;;;;;8.40;7.63;;;3.80;99.90;;;;;;5090668;28;20446;-49
2022/11/30 00:31:18;;;;;;;8.20;6.90;;;3.80;99.90;;;;;;5090694;28;20467;-48
2022/11/30 00:33:45;;;;;;;8.13;7.30;;;3.80;99.90;;;;;;5090445;28;20489;-48
2022/11/30 00:36:14;;;;;;;7.97;7.00;;;3.90;99.90;;;;;;5073582;28;20520;-48
2022/11/30 00:38:41;;;;;;;8.37;6.73;;;4.00;99.90;;;;;;5085513;28;20541;-50
2022/11/30 00:41:10;;;;;;;7.83;7.00;;;4.00;99.90;;;;;;5093661;28;20541;-49
2022/11/30 00:43:37;;;;;;;7.40;6.63;;;4.10;99.90;;;;;;5089828;28;20529;-49
2022/11/30 00:46:04;;;;;;;9.30;7.37;;;4.00;99.90;;;;;;5089188;28;20530;-49
2022/11/30 00:48:31;;;;;;;7.03;6.43;;;4.10;99.90;;;;;;5082524;28;20445;-48
2022/11/30 00:50:58;;;;;;;6.67;6.07;;;4.10;99.90;;;;;;5089491;28;20483;-49
2022/11/30 00:53:25;;;;;;;7.70;7.00;;;4.10;99.90;;;;;;5077471;28;21108;-48
2022/11/30 00:55:51;;;;;;;7.90;6.73;;;4.10;99.90;;;;;;5088122;28;20437;-48
2022/11/30 00:58:20;;;;;;;7.27;6.57;;;4.10;99.90;;;;;;5084864;28;20922;-48
2022/11/30 01:00:47;;;;;;;7.10;6.40;;;4.10;99.90;;;;;;5090830;28;20462;-49
2022/11/30 01:03:14;;;;;;;7.87;7.07;;;4.20;99.90;;;;;;5083621;28;20457;-49
2022/11/30 01:05:42;;;;;;;6.47;5.87;;;4.10;99.90;;;;;;5094091;28;20551;-49
2022/11/30 01:08:10;;;;;;;6.47;5.97;;;4.00;99.90;;;;;;5085704;28;20469;-50
2022/11/30 01:10:39;;;;;;;6.20;5.60;;;3.90;99.90;;;;;;5085171;28;20563;-48
2022/11/30 01:13:06;;;;;;;7.13;6.10;;;3.80;99.90;;;;;;5093935;28;20533;-48
2022/11/30 01:15:38;;;;;;;6.33;5.73;;;3.70;99.90;;;;;;5093421;28;20539;-48
2022/11/30 01:18:05;;;;;;;6.67;5.73;;;3.80;99.90;;;;;;5094472;28;20467;-52
2022/11/30 01:20:33;;;;;;;6.27;5.70;;;4.00;99.90;;;;;;5094117;28;20445;-49
2022/11/30 01:22:59;;;;;;;6.43;5.90;;;4.10;99.90;;;;;;5093862;28;20536;-50
2022/11/30 01:25:26;;;;;;;6.97;6.20;;;4.10;99.90;;;;;;5093107;28;20969;-49
2022/11/30 01:27:53;;;;;;;7.30;6.17;;;4.10;99.90;;;;;;5092851;28;20888;-48
2022/11/30 01:30:20;;;;;;;6.60;5.90;;;4.10;99.90;;;;;;5093258;28;20558;-49
2022/11/30 01:32:48;;;;;;;6.67;6.10;;;4.00;99.90;;;;;;5093595;28;20484;-48
2022/11/30 01:35:15;;;;;;;6.70;6.10;;;3.90;99.90;;;;;;5093275;28;20446;-48
2022/11/30 01:37:42;;;;;;;6.67;6.00;;;3.80;99.90;;;;;;5094286;28;20541;-51
2022/11/30 01:40:11;;;;;;;8.77;5.80;;;3.70;99.90;;;;;;5093664;28;20534;-49
2022/11/30 01:42:38;;;;;;;6.67;6.03;;;3.70;99.90;;;;;;5093356;28;20549;-48
2022/11/30 01:45:06;;;;;;;6.30;5.67;;;3.70;99.90;;;;;;5093235;28;20477;-48
2022/11/30 01:47:36;;;;;;;6.83;6.23;;;3.60;99.90;;;;;;5092547;28;20495;-48
2022/11/30 01:50:09;;;;;;;6.57;5.93;;;3.60;99.90;;;;;;5092979;28;20468;-50
2022/11/30 01:52:39;;;;;;;7.10;6.50;;;3.50;99.90;;;;;;5093714;28;20547;-48
2022/11/30 01:55:16;;;;;;;14.87;6.53;;;3.40;99.90;;;;;;5092981;28;20436;-48
2022/11/30 01:57:46;;;;;;;7.97;5.80;;;3.40;99.90;;;;;;5093642;28;20542;-48
2022/11/30 02:00:15;;;;;;;5.83;5.23;;;3.50;99.90;;;;;;5092869;28;20467;-48
2022/11/30 02:02:49;;;;;;;10.40;7.10;;;3.50;99.90;;;;;;5093048;28;20470;-49
2022/11/30 02:05:19;;;;;;;7.33;6.23;;;3.60;99.90;;;;;;5092325;28;21168;-48
2022/11/30 02:07:45;;;;;;;7.40;6.70;;;3.50;99.90;;;;;;5093369;28;20533;-48
2022/11/30 02:10:15;;;;;;;7.90;7.10;;;3.60;99.90;;;;;;5093119;28;20564;-50
2022/11/30 02:13:06;;;;;;;7.00;6.40;;;3.50;99.90;;;;;;5092810;28;20511;-51
2022/11/30 02:15:40;;;;;;;7.83;6.97;;;3.40;99.90;;;;;;5092560;28;20535;-51
2022/11/30 02:18:12;;;;;;;10.17;9.27;;;3.40;99.90;;;;;;5093676;28;20436;-48
2022/11/30 02:20:55;;;;;;;8.30;7.50;;;3.50;99.90;;;;;;5092846;28;20452;-50
2022/11/30 02:23:43;;;;;;;8.17;7.33;;;3.60;99.90;;;;;;5091961;28;21010;-48
2022/11/30 02:26:30;;;;;;;8.50;7.70;;;3.60;99.90;;;;;;5092090;28;20465;-48
2022/11/30 02:29:16;;;;;;;7.27;6.50;;;3.70;99.90;;;;;;5092679;28;20528;-48
2022/11/30 02:31:50;;;;;;;9.70;7.57;;;3.70;99.90;;;;;;5093544;28;20581;-48
2022/11/30 02:34:21;;;;;;;8.43;7.03;;;3.80;99.90;;;;;;5092703;28;20540;-49
2022/11/30 02:36:48;;;;;;;8.10;7.30;;;3.90;99.90;;;;;;5092878;28;20445;-49
2022/11/30 02:39:15;;;;;;;7.30;6.60;;;4.00;99.90;;;;;;5092715;28;20445;-48
2022/11/30 02:41:42;;;;;;;8.80;7.90;;;4.00;99.90;;;;;;5092129;28;20526;-50
2022/11/30 02:44:11;;;;;;;8.60;7.70;;;4.00;99.90;;;;;;5092501;28;20446;-49
2022/11/30 02:46:52;;;;;;;10.07;6.80;;;4.10;99.90;;;;;;5092517;28;20548;-51
2022/11/30 02:49:28;;;;;;;8.47;7.00;;;4.10;99.90;;;;;;5092165;28;21073;-48
2022/11/30 02:51:56;;;;;;;9.57;8.00;;;4.10;99.90;;;;;;5072283;28;20543;-49
2022/11/30 02:54:24;;;;;;;7.63;6.67;;;4.10;99.90;;;;;;5084475;28;20536;-48
2022/11/30 02:56:51;;;;;;;8.73;7.73;;;4.10;99.90;;;;;;5092627;28;20452;-48
2022/11/30 02:59:20;;;;;;;7.13;6.43;;;4.10;99.90;;;;;;5092123;28;20450;-48
2022/11/30 03:01:47;;;;;;;7.57;6.37;;;4.10;99.90;;;;;;5091831;28;20911;-48
2022/11/30 03:04:13;;;;;;;7.70;7.00;;;4.10;99.90;;;;;;5092116;28;20478;-51
2022/11/30 03:06:40;;;;;;;6.67;6.03;;;4.10;99.90;;;;;;5091637;28;20520;-48
2022/11/30 03:09:07;;;;;;;7.83;6.97;;;4.10;99.90;;;;;;5092230;28;20441;-48
2022/11/30 03:11:34;;;;;;;7.03;6.30;;;4.10;99.90;;;;;;5091538;28;20485;-49
2022/11/30 03:14:01;;;;;;;7.70;7.00;;;4.10;99.90;;;;;;5091626;28;20447;-48
2022/11/30 03:16:29;;;;;;;8.10;7.37;;;4.20;99.90;;;;;;5092220;28;20434;-49
2022/11/30 03:18:57;;;;;;;7.97;7.17;;;4.20;99.90;;;;;;5091913;28;20536;-49
2022/11/30 03:21:24;;;;;;;7.50;6.60;;;4.20;99.90;;;;;;5091419;28;20545;-48
2022/11/30 03:23:51;;;;;;;9.00;8.07;;;4.10;99.90;;;;;;5091717;28;20804;-49
2022/11/30 03:26:18;;;;;;;9.47;8.57;;;4.20;99.90;;;;;;5091542;28;20537;-49
2022/11/30 03:28:45;;;;;;;10.00;9.00;;;4.20;99.90;;;;;;5091667;28;20819;-48
2022/11/30 03:31:12;;;;;;;9.77;8.77;;;4.10;99.90;;;;;;5091124;28;20484;-48
2022/11/30 03:33:42;;;;;;;9.60;8.60;;;4.10;99.90;;;;;;5091365;28;20529;-51
2022/11/30 03:36:11;;;;;;;8.87;8.07;;;4.10;99.90;;;;;;5091687;28;20536;-48
2022/11/30 03:38:38;;;;;;;8.40;7.50;;;4.10;99.90;;;;;;5091688;28;20541;-51
2022/11/30 03:41:07;;;;;;;8.03;7.20;;;4.10;99.90;;;;;;5091485;28;20553;-49
2022/11/30 03:43:34;;;;;;;8.97;6.80;;;4.10;99.90;;;;;;5090894;28;20973;-48
2022/11/30 03:46:00;;;;;;;7.87;7.07;;;4.10;99.90;;;;;;5091617;28;20434;-50
2022/11/30 03:48:27;;;;;;;7.20;6.60;;;4.10;99.90;;;;;;5091751;28;20524;-48
2022/11/30 03:50:55;;;;;;;6.53;5.90;;;4.20;99.90;;;;;;5091166;28;20992;-49
2022/11/30 03:53:24;;;;;;;6.67;5.63;;;4.20;99.90;;;;;;5091305;28;20446;-48
2022/11/30 03:55:53;;;;;;;6.90;6.30;;;4.20;99.90;;;;;;5091331;28;20437;-50
2022/11/30 03:58:21;;;;;;;6.67;6.07;;;4.20;99.90;;;;;;5091422;28;20825;-49
2022/11/30 04:00:47;;;;;;;6.20;5.60;;;4.10;99.90;;;;;;5090814;28;20456;-49
2022/11/30 04:03:15;;;;;;;6.90;6.30;;;4.10;99.90;;;;;;5091088;28;20532;-50
2022/11/30 04:05:42;;;;;;;6.97;6.27;;;4.10;99.90;;;;;;5091334;28;20442;-51
2022/11/30 04:08:10;;;;;;;7.57;6.87;;;4.10;99.90;;;;;;5090732;28;20962;-48
2022/11/30 04:10:37;;;;;;;7.70;6.90;;;4.10;99.90;;;;;;5091858;28;20545;-48
2022/11/30 04:13:03;;;;;;;7.90;7.10;;;4.00;99.90;;;;;;5095256;28;20442;-49
2022/11/30 04:15:30;;;;;;;7.30;6.50;;;3.90;99.90;;;;;;5095285;28;20958;-48
2022/11/30 04:17:57;;;;;;;7.53;6.73;;;3.80;99.90;;;;;;5096090;28;20443;-48
2022/11/30 04:20:24;;;;;;;6.73;6.10;;;3.80;99.90;;;;;;5094955;28;20436;-48
2022/11/30 04:22:51;;;;;;;7.13;6.50;;;3.90;99.90;;;;;;5094541;28;21056;-45
2022/11/30 04:25:19;;;;;;;7.10;6.40;;;4.00;99.90;;;;;;5095054;28;20448;-49
2022/11/30 04:27:46;;;;;;;8.20;6.80;;;4.10;99.90;;;;;;5095383;28;20535;-48
2022/11/30 04:30:14;;;;;;;7.70;7.00;;;4.10;99.90;;;;;;5094830;28;20469;-49
2022/11/30 04:32:41;;;;;;;7.80;6.83;;;4.10;99.90;;;;;;5094928;28;20560;-48
2022/11/30 04:35:09;;;;;;;8.23;7.50;;;4.20;99.90;;;;;;5094962;28;20896;-48
2022/11/30 04:37:36;;;;;;;7.90;7.10;;;4.20;99.90;;;;;;5094891;28;20528;-49
2022/11/30 04:40:03;;;;;;;8.00;7.30;;;4.10;99.90;;;;;;5095026;28;20449;-49
2022/11/30 04:42:31;;;;;;;6.90;6.20;;;4.20;99.90;;;;;;5095068;28;20490;-48
2022/11/30 04:44:58;;;;;;;7.80;7.00;;;4.30;99.90;;;;;;5094794;28;20440;-48
2022/11/30 04:47:24;;;;;;;8.63;7.37;;;4.30;99.90;;;;;;5094805;28;20451;-48
2022/11/30 04:49:51;;;;;;;10.13;6.40;;;4.30;99.90;;;;;;5094608;28;20442;-48
2022/11/30 04:52:18;;;;;;;7.73;5.77;;;4.30;99.90;;;;;;5094615;28;20489;-51
2022/11/30 04:54:45;;;;;;;8.50;7.67;;;4.30;99.90;;;;;;5094308;28;20525;-48
2022/11/30 04:57:12;;;;;;;7.50;6.80;;;4.30;99.90;;;;;;5094629;28;21015;-48
2022/11/30 04:59:40;;;;;;;8.23;7.50;;;4.40;99.90;;;;;;5094081;28;20442;-48
2022/11/30 05:02:07;;;;;;;9.47;7.80;;;4.40;99.90;;;;;;5094335;28;20554;-50
2022/11/30 05:04:33;;;;;;;8.83;8.00;;;4.40;99.90;;;;;;5093908;28;20451;-48
2022/11/30 05:07:00;;;;;;;7.87;7.17;;;4.40;99.90;;;;;;5094548;28;20477;-48
2022/11/30 05:09:27;;;;;;;10.40;9.43;;;4.40;99.90;;;;;;5094031;28;20441;-48
2022/11/30 05:11:54;;;;;;;15.83;12.50;;;4.50;99.90;;;;;;5094245;28;20479;-48
2022/11/30 05:14:21;;;;;;;10.00;9.10;;;4.50;99.90;;;;;;5093420;28;20442;-48
2022/11/30 05:16:49;;;;;;;8.60;7.80;;;4.40;99.90;;;;;;5094151;28;20904;-49
2022/11/30 05:19:16;;;;;;;6.90;6.30;;;4.10;99.90;;;;;;5093915;28;20470;-49
2022/11/30 05:21:44;;;;;;;7.47;6.50;;;3.90;99.90;;;;;;5093063;28;20454;-48
2022/11/30 05:24:10;;;;;;;9.10;7.00;;;3.90;99.90;;;;;;5093767;28;20541;-49
2022/11/30 05:26:38;;;;;;;9.67;7.50;;;3.80;99.90;;;;;;5094326;28;20445;-48
2022/11/30 05:29:05;;;;;;;7.10;6.40;;;3.90;99.90;;;;;;5093787;28;20440;-50
2022/11/30 05:31:33;;;;;;;10.30;6.90;;;3.90;99.90;;;;;;5093179;28;20568;-48
2022/11/30 05:34:01;;;;;;;6.87;5.90;;;4.00;99.90;;;;;;5093221;28;20891;-48
2022/11/30 05:36:27;;;;;;;7.00;6.33;;;4.10;99.90;;;;;;5094265;28;20442;-49
2022/11/30 05:38:54;;;;;;;7.50;6.90;;;4.10;99.90;;;;;;5093598;28;20451;-48
2022/11/30 05:41:21;;;;;;;6.90;6.20;;;4.20;99.90;;;;;;5093907;28;20477;-51
2022/11/30 05:43:48;;;;;;;7.33;6.60;;;4.20;99.90;;;;;;5093179;28;20538;-48
2022/11/30 05:46:15;;;;;;;11.60;10.40;;;4.20;99.90;;;;;;5093597;28;20446;-48
2022/11/30 05:48:42;;;;;;;11.53;10.53;;;4.20;99.90;;;;;;5093900;28;20535;-50
2022/11/30 05:51:12;;;;;;;11.70;10.63;;;4.20;99.90;;;;;;5093526;28;20508;-48
2022/11/30 05:53:39;;;;;;;10.33;8.17;;;4.20;99.90;;;;;;5092734;28;20539;-48
2022/11/30 05:56:08;;;;;;;7.53;6.83;;;4.20;99.90;;;;;;5093730;28;20491;-48
2022/11/30 05:58:35;;;;;;;8.10;7.30;;;4.20;99.90;;;;;;5093233;28;20526;-48
2022/11/30 06:01:02;;;;;;;6.80;6.10;;;4.10;99.90;;;;;;5093064;28;20457;-49
2022/11/30 06:03:30;;;;;;;7.23;6.53;;;4.10;99.90;;;;;;5092745;28;20437;-48
2022/11/30 06:05:57;;;;;;;6.97;6.37;;;4.10;99.90;;;;;;5093147;28;20994;-49
2022/11/30 06:08:26;;;;;;;7.83;7.07;;;4.20;99.90;;;;;;5093058;28;20444;-48
2022/11/30 06:10:53;;;;;;;8.33;7.07;;;3.90;99.90;;;;;;5092942;28;20487;-48
2022/11/30 06:13:20;;;;;;;8.33;7.53;;;3.70;99.90;;;;;;5092452;28;20447;-48
2022/11/30 06:15:46;;;;;;;10.63;9.53;;;3.50;99.90;;;;;;5092952;28;20536;-49
2022/11/30 06:18:14;;;;;;;11.03;9.93;;;3.40;99.90;;;;;;5093308;28;20436;-48
2022/11/30 06:20:41;;;;;;;12.97;10.10;;;3.40;99.90;;;;;;5092744;28;20531;-48
2022/11/30 06:23:07;;;;;;;11.30;8.90;;;3.50;99.90;;;;;;5092763;28;20450;-48
2022/11/30 06:25:36;;;;;;;12.33;10.10;;;3.70;99.90;;;;;;5092271;28;20445;-48
2022/11/30 06:28:03;;;;;;;12.30;10.10;;;3.80;99.90;;;;;;5093314;28;20441;-50
2022/11/30 06:30:29;;;;;;;11.23;9.90;;;3.90;99.90;;;;;;5092492;28;20448;-50
2022/11/30 06:32:56;;;;;;;12.53;10.70;;;3.90;99.90;;;;;;5091485;28;20459;-48
2022/11/30 06:35:24;;;;;;;12.80;11.50;;;4.00;99.90;;;;;;5091929;28;20437;-48
2022/11/30 06:37:51;;;;;;;13.43;10.43;;;4.00;99.90;;;;;;5092334;28;20433;-49
2022/11/30 06:40:18;;;;;;;11.90;10.60;;;3.90;99.90;;;;;;5093009;28;20446;-49
2022/11/30 06:42:46;;;;;;;12.80;10.27;;;3.80;99.90;;;;;;5092112;28;20449;-48
2022/11/30 06:45:13;;;;;;;11.60;9.20;;;3.70;99.90;;;;;;5090615;28;20439;-48
2022/11/30 06:47:40;;;;;;;10.50;9.50;;;3.70;99.90;;;;;;5092526;28;20436;-49
2022/11/30 06:50:08;;;;;;;11.10;10.00;;;3.80;99.90;;;;;;5092719;28;21003;-48
2022/11/30 06:52:35;;;;;;;11.27;10.27;;;3.80;99.90;;;;;;5091541;28;20482;-49
2022/11/30 06:55:02;;;;;;;10.50;9.50;;;4.00;99.90;;;;;;5092299;28;20448;-51
2022/11/30 06:57:30;;;;;;;10.20;9.20;;;3.90;99.90;;;;;;5092449;28;20530;-48
2022/11/30 06:59:58;;;;;;;9.93;8.93;;;4.00;99.90;;;;;;5091858;28;20525;-49
2022/11/30 07:02:25;;;;;;;10.93;9.80;;;3.90;99.90;;;;;;5092290;28;21046;-48
2022/11/30 07:04:52;;;;;;;11.20;9.77;;;4.10;99.90;;;;;;5091850;28;20447;-48
2022/11/30 07:07:18;;;;;;;10.20;9.30;;;4.10;99.90;;;;;;5092269;28;20620;-48
2022/11/30 07:09:45;;;;;;;10.80;9.50;;;3.90;99.90;;;;;;5092014;28;20452;-49
2022/11/30 07:12:12;;;;;;;12.47;9.30;;;3.70;99.90;;;;;;5092263;28;20581;-48
2022/11/30 07:14:39;;;;;;;10.80;9.00;;;3.70;99.90;;;;;;5091469;28;20471;-50
2022/11/30 07:17:07;;;;;;;11.77;9.50;;;3.60;99.90;;;;;;5092225;28;20532;-48
2022/11/30 07:19:34;;;;;;;9.87;8.90;;;3.70;99.90;;;;;;5091788;28;20468;-49
2022/11/30 07:22:01;;;;;;;11.07;8.83;;;3.80;99.90;;;;;;5091672;28;20447;-49
2022/11/30 07:27:12;;;;;;;11.77;10.67;;;4.10;99.90;;;;;;5091852;28;20420;-48
2022/11/30 07:29:39;;;;;;;15.20;11.30;;;4.20;99.90;;;;;;5091501;28;20473;-48
2022/11/30 07:32:07;;;;;;;15.17;10.90;;;4.20;99.90;;;;;;5091697;28;20485;-51
2022/11/30 07:34:34;;;;;;;11.87;8.77;;;4.10;99.90;;;;;;5090959;28;20442;-50
2022/11/30 07:37:01;;;;;;;12.27;11.07;;;4.20;99.90;;;;;;5091348;28;20445;-49
2022/11/30 07:39:28;;;;;;;12.07;10.67;;;4.30;99.90;;;;;;5091733;28;20449;-48
2022/11/30 07:41:55;;;;;;;11.80;10.10;;;4.40;99.90;;;;;;5091408;28;20472;-51
2022/11/30 07:44:21;;;;;;;11.27;10.20;;;4.30;99.90;;;;;;5091105;28;20525;-48
2022/11/30 07:46:48;;;;;;;11.03;9.73;;;4.30;99.90;;;;;;5091293;28;20449;-48
2022/11/30 07:49:16;;;;;;;11.17;10.17;;;4.20;99.90;;;;;;5091438;28;20440;-51
2022/11/30 07:51:44;;;;;;;10.57;9.60;;;4.30;99.90;;;;;;5090817;28;20841;-51
2022/11/30 07:54:11;;;;;;;10.67;9.70;;;4.30;99.90;;;;;;5090775;28;20450;-48
2022/11/30 07:56:38;;;;;;;11.03;9.93;;;4.40;99.90;;;;;;5091441;28;20478;-51
2022/11/30 07:59:05;;;;;;;11.47;10.30;;;4.20;99.90;;;;;;5090859;28;20817;-48
2022/11/30 08:01:32;;;;;;;12.13;10.80;;;4.20;99.90;;;;;;5091549;28;20542;-48
2022/11/30 08:04:00;;;;;;;12.57;11.10;;;4.20;99.90;;;;;;5090390;28;20438;-48
2022/11/30 08:06:29;;;;;;;12.40;10.20;;;4.20;99.90;;;;;;5091549;28;20525;-49
2022/11/30 08:08:58;;;;;;;10.60;9.60;;;4.30;99.90;;;;;;5087068;28;20443;-48
2022/11/30 08:11:26;;;;;;;11.17;9.57;;;4.20;99.90;;;;;;5090392;28;20966;-48
2022/11/30 08:13:54;;;;;;;11.50;9.50;;;4.20;99.90;;;;;;5090420;28;20549;-48
2022/11/30 08:16:22;;;;;;;11.37;10.37;;;4.20;99.90;;;;;;5090772;28;20446;-48
2022/11/30 08:18:49;;;;;;;11.97;10.77;;;4.30;99.90;;;;;;5090708;28;20476;-48
2022/11/30 08:21:18;;;;;;;11.37;10.07;;;4.30;99.90;;;;;;5091264;28;20463;-48
2022/11/30 08:23:48;;;;;;;11.30;10.13;;;4.40;99.90;;;;;;5090733;28;20444;-51
2022/11/30 08:26:17;;;;;;;12.70;11.30;;;4.40;99.90;;;;;;5090775;28;21024;-48
2022/11/30 08:28:45;;;;;;;13.27;11.97;;;4.40;99.90;;;;;;5091269;28;20543;-50
2022/11/30 08:31:14;;;;;;;12.47;10.73;;;4.40;99.90;;;;;;5091691;28;20465;-49
2022/11/30 08:33:41;;;;;;;16.23;12.27;;;4.40;99.90;;;;;;5090465;28;20529;-48
2022/11/30 08:36:09;;;;;;;12.47;11.20;;;4.40;99.90;;;;;;5091007;28;20457;-48
2022/11/30 08:38:36;;;;;;;13.27;10.63;;;4.60;99.90;;;;;;5090221;28;20537;-48
2022/11/30 08:41:05;;;;;;;12.90;11.20;;;4.70;99.90;;;;;;5090204;28;20456;-49
2022/11/30 08:43:32;;;;;;;13.40;11.30;;;4.60;99.90;;;;;;5090643;28;20448;-48
2022/11/30 08:45:59;;;;;;;12.53;11.33;;;4.50;99.90;;;;;;5089850;28;20531;-49
2022/11/30 08:48:26;;;;;;;14.97;11.80;;;4.50;99.90;;;;;;5089754;28;20442;-48
2022/11/30 08:50:53;;;;;;;13.60;12.20;;;4.50;99.90;;;;;;5089745;28;20466;-48
2022/11/30 08:53:20;;;;;;;12.40;10.63;;;4.50;99.90;;;;;;5089620;28;20480;-48
2022/11/30 08:55:55;;;;;;;17.03;11.40;;;4.50;99.90;;;;;;5088750;28;20447;-48
2022/11/30 08:58:24;;;;;;;15.87;12.00;;;4.50;99.90;;;;;;5088972;28;20528;-49
2022/11/30 09:00:50;;;;;;;16.87;12.03;;;4.60;99.90;;;;;;5092979;28;20980;-49
2022/11/30 09:03:17;;;;;;;14.70;11.90;;;4.60;99.90;;;;;;5093988;28;20530;-48
2022/11/30 09:05:44;;;;;;;14.27;12.87;;;4.60;99.90;;;;;;5094641;28;20434;-49
2022/11/30 09:08:11;;;;;;;14.07;12.03;;;4.50;99.90;;;;;;5094694;28;20450;-48
2022/11/30 09:10:38;;;;;;;11.33;10.13;;;4.60;99.90;;;;;;5093527;28;20530;-48
2022/11/30 09:13:05;;;;;;;12.57;11.27;;;4.60;99.90;;;;;;5093109;28;20478;-50
2022/11/30 09:15:33;;;;;;;14.33;12.30;;;4.60;99.90;;;;;;5093352;28;20528;-49
2022/11/30 09:18:00;;;;;;;13.97;10.87;;;4.60;99.90;;;;;;5092611;28;20446;-50
2022/11/30 09:20:26;;;;;;;12.70;11.50;;;4.60;99.90;;;;;;5093426;28;20441;-49
2022/11/30 09:22:53;;;;;;;14.93;12.43;;;4.70;99.90;;;;;;5092960;28;20548;-53
2022/11/30 09:25:20;;;;;;;17.83;13.87;;;4.70;99.90;;;;;;5092711;28;20905;-49
2022/11/30 09:27:47;;;;;;;16.60;14.80;;;4.70;99.90;;;;;;5092416;28;20462;-47
2022/11/30 09:30:14;;;;;;;14.40;12.43;;;4.70;99.90;;;;;;5093037;28;20208;-50
2022/11/30 09:32:42;;;;;;;14.27;12.50;;;4.70;99.90;;;;;;5091985;28;20861;-48
2022/11/30 09:35:09;;;;;;;15.43;11.90;;;4.70;99.90;;;;;;5092871;28;20449;-49
2022/11/30 09:37:37;;;;;;;18.00;14.37;;;4.70;99.90;;;;;;5089451;28;20468;-51
2022/11/30 09:40:05;;;;;;;16.47;13.20;;;4.80;99.90;;;;;;5087908;28;20451;-51
2022/11/30 09:42:43;;;;;;;16.07;12.10;;;4.80;99.90;;;;;;5092180;28;20563;-51
2022/11/30 09:45:15;;;;;;;16.37;11.90;;;4.80;99.90;;;;;;5092236;28;20535;-48
2022/11/30 09:48:02;;;;;;;16.40;12.47;;;4.80;99.90;;;;;;5092255;28;20536;-49
2022/11/30 09:50:31;;;;;;;17.20;12.53;;;4.90;99.90;;;;;;5091880;28;20434;-49
2022/11/30 09:53:02;;;;;;;16.30;13.00;;;4.80;99.90;;;;;;5092383;28;20478;-48
2022/11/30 09:55:33;;;;;;;17.20;12.37;;;4.80;99.90;;;;;;5088454;28;20468;-48
2022/11/30 09:58:03;;;;;;;16.87;14.40;;;4.80;99.90;;;;;;5092660;28;20533;-48
2022/11/30 10:00:30;;;;;;;14.60;13.10;;;4.90;99.90;;;;;;5091717;28;20508;-50
2022/11/30 10:03:03;;;;;;;16.13;12.80;;;4.90;99.90;;;;;;5092330;28;20585;-48
2022/11/30 10:05:44;;;;;;;17.00;12.67;;;5.20;99.90;;;;;;5092368;28;20514;-51
2022/11/30 10:08:36;;;;;;;18.10;13.67;;;5.10;99.90;;;;;;5091011;28;21035;-48
2022/11/30 10:11:23;;;;;;;18.93;13.67;;;5.10;99.90;;;;;;5089535;28;20552;-48
2022/11/30 10:14:09;;;;;;;18.50;14.00;;;5.10;99.90;;;;;;5091977;28;20565;-48
2022/11/30 10:16:43;;;;;;;18.90;12.93;;;5.10;99.90;;;;;;5092141;28;20533;-48
2022/11/30 10:19:27;;;;;;;21.00;15.10;;;5.10;99.90;;;;;;5080774;28;20446;-48
2022/11/30 10:22:05;;;;;;;18.30;12.57;;;5.10;99.90;;;;;;5080296;28;20549;-49
2022/11/30 10:24:47;;;;;;;17.90;13.37;;;5.10;99.90;;;;;;5090954;28;20535;-48
2022/11/30 10:27:17;;;;;;;19.60;13.60;;;5.20;99.90;;;;;;5092418;28;20943;-48
2022/11/30 10:29:44;;;;;;;18.27;13.30;;;5.20;99.90;;;;;;5091643;28;20442;-48
2022/11/30 10:32:18;;;;;;;19.13;14.40;;;5.10;99.90;;;;;;5091890;28;20505;-48
2022/11/30 10:34:49;;;;;;;18.63;13.17;;;5.10;99.90;;;;;;5091255;28;20959;-48
2022/11/30 10:37:20;;;;;;;18.40;13.33;;;5.00;99.90;;;;;;5091132;28;20442;-48
2022/11/30 10:39:56;;;;;;;19.43;13.07;;;4.70;99.90;;;;;;5090608;28;20853;-48
2022/11/30 10:42:29;;;;;;;23.10;14.77;;;4.80;99.90;;;;;;5092193;28;20543;-48
2022/11/30 10:45:00;;;;;;;21.73;16.47;;;4.80;99.90;;;;;;5091805;28;20508;-51
2022/11/30 10:47:32;;;;;;;22.60;13.90;;;4.90;99.90;;;;;;5091723;28;20504;-48
2022/11/30 10:50:01;;;;;;;18.90;13.77;;;5.00;99.90;;;;;;5092583;28;20485;-48
2022/11/30 10:52:30;;;;;;;25.10;15.87;;;4.70;99.90;;;;;;5092289;28;20574;-48
2022/11/30 10:54:58;;;;;;;21.57;14.97;;;4.80;99.90;;;;;;5092205;28;20902;-48
2022/11/30 10:57:30;;;;;;;31.40;22.87;;;4.60;99.90;;;;;;5092568;28;20445;-49
2022/11/30 11:00:00;;;;;;;29.20;17.87;;;4.50;99.90;;;;;;5091994;28;20443;-49
2022/11/30 11:02:36;;;;;;;27.40;16.70;;;4.50;99.90;;;;;;5092069;28;20462;-48
2022/11/30 11:05:14;;;;;;;25.20;15.57;;;4.70;99.90;;;;;;5091435;28;20439;-48
2022/11/30 11:07:47;;;;;;;19.60;14.47;;;4.80;99.90;;;;;;5091619;28;20444;-48
2022/11/30 11:10:17;;;;;;;21.53;15.13;;;4.90;99.90;;;;;;5091357;28;20439;-48
2022/11/30 11:12:49;;;;;;;26.63;18.87;;;4.90;99.90;;;;;;5091013;28;20567;-48
2022/11/30 11:15:20;;;;;;;22.77;16.67;;;4.90;99.90;;;;;;5090746;28;20441;-52
2022/11/30 11:17:47;;;;;;;21.83;14.40;;;4.90;99.90;;;;;;5090839;28;20449;-48
2022/11/30 11:20:31;;;;;;;18.33;14.93;;;5.00;99.90;;;;;;5088950;28;20934;-50
2022/11/30 11:22:58;;;;;;;21.30;14.73;;;5.10;99.90;;;;;;5088650;28;20896;-48
2022/11/30 11:25:31;;;;;;;26.23;16.37;;;5.10;99.90;;;;;;5075608;28;20453;-49
2022/11/30 11:28:07;;;;;;;22.10;15.33;;;5.20;99.90;;;;;;5069446;28;20454;-48
2022/11/30 11:30:36;;;;;;;20.70;14.53;;;5.10;99.90;;;;;;5069877;28;20453;-49
2022/11/30 11:33:18;;;;;;;20.27;13.20;;;5.10;99.90;;;;;;5070324;28;20469;-51
2022/11/30 11:35:48;;;;;;;20.00;14.83;;;5.10;99.90;;;;;;5069513;28;20545;-49
2022/11/30 11:38:26;;;;;;;19.60;13.90;;;4.90;99.90;;;;;;5068864;28;20529;-49
2022/11/30 11:40:56;;;;;;;20.87;13.40;;;4.90;99.90;;;;;;5069318;28;20490;-48
2022/11/30 11:43:25;;;;;;;17.67;13.13;;;4.80;99.90;;;;;;5069450;28;20812;-48
2022/11/30 11:45:54;;;;;;;23.70;14.37;;;4.80;99.90;;;;;;5072147;28;20444;-50
2022/11/30 11:48:29;;;;;;;20.93;13.83;;;4.80;99.90;;;;;;5090093;28;20455;-48
2022/11/30 11:51:01;;;;;;;21.77;15.13;;;5.00;99.90;;;;;;5090351;28;20967;-48
2022/11/30 11:53:42;;;;;;;23.23;14.03;;;5.20;99.90;;;;;;5089858;28;20525;-51
2022/11/30 11:56:13;;;;;;;21.00;14.17;;;4.90;99.90;;;;;;5089556;28;20441;-48
2022/11/30 11:58:45;;;;;;;19.57;14.17;;;4.80;99.90;;;;;;5089332;28;20524;-48
2022/11/30 12:01:21;;;;;;;17.53;13.20;;;4.90;99.90;;;;;;5089984;28;20482;-48
2022/11/30 12:04:00;;;;;;;23.30;14.20;;;5.10;99.90;;;;;;5090025;28;20533;-49
2022/11/30 12:06:30;;;;;;;25.53;15.50;;;4.90;99.90;;;;;;5090369;28;20437;-48
2022/11/30 12:09:01;;;;;;;23.03;12.23;;;4.90;99.90;;;;;;5088738;28;20833;-49
2022/11/30 12:11:35;;;;;;;21.07;14.00;;;4.90;99.90;;;;;;5089532;28;20455;-48
2022/11/30 12:14:08;;;;;;;19.57;13.83;;;5.00;99.90;;;;;;5089868;28;20507;-51
2022/11/30 12:16:41;;;;;;;17.73;13.73;;;5.00;99.90;;;;;;5089888;28;20527;-48
2022/11/30 12:19:14;;;;;;;17.60;12.73;;;4.90;99.90;;;;;;5089353;28;20468;-50
2022/11/30 12:21:55;;;;;;;22.47;14.20;;;5.00;99.90;;;;;;5069647;28;20673;-49
2022/11/30 12:24:55;;;;;;;20.53;14.00;;;5.20;99.90;;;;;;5089193;28;20532;-48
2022/11/30 12:27:33;;;;;;;17.77;14.83;;;5.20;99.90;;;;;;5090815;28;20543;-51
2022/11/30 12:30:08;;;;;;;16.73;13.20;;;5.10;99.90;;;;;;5087787;28;20569;-48
2022/11/30 12:32:58;;;;;;;21.40;13.37;;;5.10;99.90;;;;;;5093243;28;20574;-49
2022/11/30 12:35:35;;;;;;;17.73;12.70;;;5.10;99.90;;;;;;5094962;28;20533;-46
2022/11/30 12:38:14;;;;;;;15.13;12.13;;;5.10;99.90;;;;;;5074895;28;20450;-47
2022/11/30 12:40:50;;;;;;;16.90;11.63;;;5.00;99.90;;;;;;5074539;28;20534;-46
2022/11/30 12:43:25;;;;;;;13.30;10.20;;;5.00;99.90;;;;;;5082554;28;20447;-46
2022/11/30 12:45:58;;;;;;;14.63;10.20;;;5.10;99.90;;;;;;5094817;28;20446;-47
2022/11/30 12:48:34;;;;;;;17.20;11.27;;;5.10;99.90;;;;;;5094044;28;20895;-46
2022/11/30 12:51:09;;;;;;;16.60;11.37;;;5.10;99.90;;;;;;5094387;28;20480;-46
2022/11/30 12:53:45;;;;;;;24.33;13.87;;;5.20;99.90;;;;;;5093965;28;20560;-49
2022/11/30 12:56:23;;;;;;;15.87;11.20;;;5.30;99.90;;;;;;5092095;28;20525;-46
2022/11/30 12:58:58;;;;;;;12.57;10.40;;;5.40;99.90;;;;;;5077252;28;20544;-46
2022/11/30 13:01:43;;;;;;;13.10;10.17;;;5.30;99.90;;;;;;5094054;28;20542;-49
2022/11/30 13:04:16;;;;;;;14.60;10.40;;;5.30;99.90;;;;;;5093064;28;20528;-46